sensor_id;sensor_type;location;lat;lon;timestamp;P1;durP1;ratioP1;P2;durP2;ratioP2
20090;SDS011;10205;49.678;6.560;2024-03-23T16:49:19;1.13;;;1.02;;
20090;SDS011;10205;49.678;6.560;2024-03-23T16:51:45;1.27;;;1.10;;
20090;SDS011;10205;49.678;6.560;2024-03-23T16:54:11;1.60;;;1.00;;
20090;SDS011;10205;49.678;6.560;2024-03-23T16:56:36;1.10;;;1.00;;
20090;SDS011;10205;49.678;6.560;2024-03-23T16:59:02;1.35;;;1.10;;
20090;SDS011;10205;49.678;6.560;2024-03-23T17:01:29;1.08;;;0.95;;
20090;SDS011;10205;49.678;6.560;2024-03-23T17:03:55;3.28;;;1.08;;
20090;SDS011;10205;49.678;6.560;2024-03-23T17:06:21;1.63;;;1.20;;
20090;SDS011;10205;49.678;6.560;2024-03-23T17:08:48;1.33;;;0.90;;
20090;SDS011;10205;49.678;6.560;2024-03-23T17:11:13;1.63;;;1.05;;
20090;SDS011;10205;49.678;6.560;2024-03-23T17:13:39;1.27;;;1.00;;
20090;SDS011;10205;49.678;6.560;2024-03-23T17:16:05;1.90;;;1.10;;
20090;SDS011;10205;49.678;6.560;2024-03-23T17:18:31;2.45;;;0.90;;
20090;SDS011;10205;49.678;6.560;2024-03-23T17:20:57;1.75;;;1.20;;
20090;SDS011;10205;49.678;6.560;2024-03-23T17:23:23;1.10;;;1.00;;
20090;SDS011;10205;49.678;6.560;2024-03-23T17:25:49;2.17;;;1.20;;
20090;SDS011;10205;49.678;6.560;2024-03-23T17:28:15;1.10;;;1.00;;
20090;SDS011;10205;49.678;6.560;2024-03-23T17:30:43;1.25;;;1.08;;
20090;SDS011;10205;49.678;6.560;2024-03-23T17:33:10;2.58;;;1.15;;
20090;SDS011;10205;49.678;6.560;2024-03-23T17:35:35;1.08;;;0.98;;
20090;SDS011;10205;49.678;6.560;2024-03-23T17:38:01;2.40;;;1.23;;
20090;SDS011;10205;49.678;6.560;2024-03-23T17:40:28;1.23;;;0.98;;
20090;SDS011;10205;49.678;6.560;2024-03-23T17:42:54;2.67;;;1.20;;
20090;SDS011;10205;49.678;6.560;2024-03-23T17:45:22;2.28;;;1.20;;
20090;SDS011;10205;49.678;6.560;2024-03-23T17:47:48;1.60;;;1.05;;
20090;SDS011;10205;49.678;6.560;2024-03-23T17:50:16;1.93;;;1.10;;
20090;SDS011;10205;49.678;6.560;2024-03-23T17:52:42;1.30;;;1.20;;
20090;SDS011;10205;49.678;6.560;2024-03-23T17:55:08;1.90;;;1.10;;
20090;SDS011;10205;49.678;6.560;2024-03-23T17:57:33;2.20;;;1.08;;
20090;SDS011;10205;49.678;6.560;2024-03-23T17:59:59;1.33;;;1.10;;
20090;SDS011;10205;49.678;6.560;2024-03-23T18:02:25;1.77;;;1.30;;
20090;SDS011;10205;49.678;6.560;2024-03-23T18:04:50;2.45;;;1.00;;
20090;SDS011;10205;49.678;6.560;2024-03-23T18:07:16;1.77;;;1.30;;
20090;SDS011;10205;49.678;6.560;2024-03-23T18:09:42;2.20;;;1.23;;
20090;SDS011;10205;49.678;6.560;2024-03-23T18:12:10;1.20;;;0.98;;
20090;SDS011;10205;49.678;6.560;2024-03-23T18:14:36;1.55;;;1.30;;
20090;SDS011;10205;49.678;6.560;2024-03-23T18:17:02;1.90;;;1.20;;
20090;SDS011;10205;49.678;6.560;2024-03-23T18:19:27;1.40;;;1.20;;
20090;SDS011;10205;49.678;6.560;2024-03-23T18:21:54;1.50;;;1.10;;
20090;SDS011;10205;49.678;6.560;2024-03-23T18:24:20;1.57;;;1.03;;
20090;SDS011;10205;49.678;6.560;2024-03-23T18:26:45;1.38;;;1.27;;
20090;SDS011;10205;49.678;6.560;2024-03-23T18:29:12;1.40;;;1.30;;
20090;SDS011;10205;49.678;6.560;2024-03-23T18:31:38;1.90;;;1.17;;
20090;SDS011;10205;49.678;6.560;2024-03-23T18:34:04;1.48;;;1.23;;
20090;SDS011;10205;49.678;6.560;2024-03-23T18:36:31;1.45;;;1.13;;
20090;SDS011;10205;49.678;6.560;2024-03-23T18:38:56;1.97;;;1.07;;
20090;SDS011;10205;49.678;6.560;2024-03-23T18:41:22;2.78;;;1.33;;
20090;SDS011;10205;49.678;6.560;2024-03-23T18:43:48;2.00;;;1.25;;
20090;SDS011;10205;49.678;6.560;2024-03-23T18:46:14;1.33;;;1.10;;
20090;SDS011;10205;49.678;6.560;2024-03-23T18:48:41;2.03;;;1.45;;
20090;SDS011;10205;49.678;6.560;2024-03-23T18:51:07;1.33;;;1.10;;
20090;SDS011;10205;49.678;6.560;2024-03-23T18:53:33;1.63;;;1.30;;
20090;SDS011;10205;49.678;6.560;2024-03-23T18:55:59;2.70;;;1.17;;
20090;SDS011;10205;49.678;6.560;2024-03-23T18:58:28;1.70;;;1.27;;
20090;SDS011;10205;49.678;6.560;2024-03-23T19:01:01;1.23;;;1.13;;
20090;SDS011;10205;49.678;6.560;2024-03-23T19:03:28;2.30;;;1.42;;
20090;SDS011;10205;49.678;6.560;2024-03-23T19:05:57;1.63;;;1.23;;
20090;SDS011;10205;49.678;6.560;2024-03-23T19:08:24;1.63;;;1.35;;
20090;SDS011;10205;49.678;6.560;2024-03-23T19:10:53;1.50;;;1.30;;
20090;SDS011;10205;49.678;6.560;2024-03-23T19:13:20;1.65;;;1.20;;
20090;SDS011;10205;49.678;6.560;2024-03-23T19:15:47;1.40;;;1.20;;
20090;SDS011;10205;49.678;6.560;2024-03-23T19:18:13;2.30;;;1.40;;
20090;SDS011;10205;49.678;6.560;2024-03-23T19:20:39;2.95;;;1.40;;
20090;SDS011;10205;49.678;6.560;2024-03-23T19:23:05;1.97;;;1.47;;
20090;SDS011;10205;49.678;6.560;2024-03-23T19:25:32;2.00;;;1.80;;
20090;SDS011;10205;49.678;6.560;2024-03-23T19:27:58;2.40;;;2.10;;
20090;SDS011;10205;49.678;6.560;2024-03-23T19:30:24;2.63;;;2.20;;
20090;SDS011;10205;49.678;6.560;2024-03-23T19:32:50;1.80;;;1.47;;
20090;SDS011;10205;49.678;6.560;2024-03-23T19:35:15;2.70;;;1.75;;
20090;SDS011;10205;49.678;6.560;2024-03-23T19:37:42;2.72;;;1.50;;
20090;SDS011;10205;49.678;6.560;2024-03-23T19:40:08;1.80;;;1.70;;
20090;SDS011;10205;49.678;6.560;2024-03-23T19:42:33;3.00;;;1.70;;
20090;SDS011;10205;49.678;6.560;2024-03-23T19:44:59;2.35;;;2.10;;
20090;SDS011;10205;49.678;6.560;2024-03-23T19:47:25;2.03;;;1.60;;
20090;SDS011;10205;49.678;6.560;2024-03-23T19:49:50;2.00;;;1.70;;
20090;SDS011;10205;49.678;6.560;2024-03-23T19:52:19;2.08;;;1.73;;
20090;SDS011;10205;49.678;6.560;2024-03-23T19:54:45;2.60;;;1.58;;
20090;SDS011;10205;49.678;6.560;2024-03-23T19:57:10;3.45;;;1.67;;
20090;SDS011;10205;49.678;6.560;2024-03-23T19:59:36;2.47;;;1.60;;
20090;SDS011;10205;49.678;6.560;2024-03-23T20:02:01;2.55;;;1.65;;
20090;SDS011;10205;49.678;6.560;2024-03-23T20:04:27;1.90;;;1.60;;
20090;SDS011;10205;49.678;6.560;2024-03-23T20:06:52;2.00;;;1.55;;
20090;SDS011;10205;49.678;6.560;2024-03-23T20:09:20;2.22;;;1.65;;
20090;SDS011;10205;49.678;6.560;2024-03-23T20:11:46;2.08;;;1.60;;
20090;SDS011;10205;49.678;6.560;2024-03-23T20:14:11;2.57;;;1.70;;
20090;SDS011;10205;49.678;6.560;2024-03-23T20:16:37;2.28;;;1.65;;
20090;SDS011;10205;49.678;6.560;2024-03-23T20:19:03;1.73;;;1.42;;
20090;SDS011;10205;49.678;6.560;2024-03-23T20:21:32;2.75;;;1.70;;
20090;SDS011;10205;49.678;6.560;2024-03-23T20:23:58;3.05;;;1.85;;
20090;SDS011;10205;49.678;6.560;2024-03-23T20:26:24;3.30;;;2.00;;
20090;SDS011;10205;49.678;6.560;2024-03-23T20:28:50;2.45;;;1.60;;
20090;SDS011;10205;49.678;6.560;2024-03-23T20:31:16;2.25;;;1.58;;
20090;SDS011;10205;49.678;6.560;2024-03-23T20:33:45;2.47;;;1.75;;
20090;SDS011;10205;49.678;6.560;2024-03-23T20:36:12;2.10;;;1.45;;
20090;SDS011;10205;49.678;6.560;2024-03-23T20:38:39;1.90;;;1.60;;
20090;SDS011;10205;49.678;6.560;2024-03-23T20:41:04;2.80;;;2.00;;
20090;SDS011;10205;49.678;6.560;2024-03-23T20:43:30;2.30;;;1.77;;
20090;SDS011;10205;49.678;6.560;2024-03-23T20:46:02;2.58;;;1.60;;
20090;SDS011;10205;49.678;6.560;2024-03-23T20:48:28;2.40;;;1.50;;
20090;SDS011;10205;49.678;6.560;2024-03-23T20:51:00;1.67;;;1.40;;
20090;SDS011;10205;49.678;6.560;2024-03-23T20:53:27;1.85;;;1.00;;
20090;SDS011;10205;49.678;6.560;2024-03-23T20:55:53;1.95;;;1.40;;
20090;SDS011;10205;49.678;6.560;2024-03-23T20:58:20;1.90;;;1.30;;
20090;SDS011;10205;49.678;6.560;2024-03-23T21:00:49;2.10;;;1.30;;
20090;SDS011;10205;49.678;6.560;2024-03-23T21:03:15;1.30;;;1.20;;
20090;SDS011;10205;49.678;6.560;2024-03-23T21:05:41;3.03;;;1.40;;
20090;SDS011;10205;49.678;6.560;2024-03-23T21:08:08;2.07;;;1.27;;
20090;SDS011;10205;49.678;6.560;2024-03-23T21:10:34;1.15;;;1.02;;
20090;SDS011;10205;49.678;6.560;2024-03-23T21:13:00;1.70;;;1.10;;
20090;SDS011;10205;49.678;6.560;2024-03-23T21:15:26;1.85;;;1.17;;
20090;SDS011;10205;49.678;6.560;2024-03-23T21:17:52;1.83;;;1.20;;
20090;SDS011;10205;49.678;6.560;2024-03-23T21:20:18;1.70;;;1.10;;
20090;SDS011;10205;49.678;6.560;2024-03-23T21:22:43;1.17;;;1.08;;
20090;SDS011;10205;49.678;6.560;2024-03-23T21:25:09;1.27;;;1.10;;
20090;SDS011;10205;49.678;6.560;2024-03-23T21:27:36;1.20;;;1.10;;
20090;SDS011;10205;49.678;6.560;2024-03-23T21:30:02;1.67;;;1.38;;
20090;SDS011;10205;49.678;6.560;2024-03-23T21:32:28;1.10;;;0.95;;
20090;SDS011;10205;49.678;6.560;2024-03-23T21:34:55;1.40;;;1.30;;
20090;SDS011;10205;49.678;6.560;2024-03-23T21:37:20;1.10;;;1.00;;
20090;SDS011;10205;49.678;6.560;2024-03-23T21:39:46;1.65;;;1.20;;
20090;SDS011;10205;49.678;6.560;2024-03-23T21:42:12;1.30;;;1.20;;
20090;SDS011;10205;49.678;6.560;2024-03-23T21:44:38;1.57;;;1.13;;
20090;SDS011;10205;49.678;6.560;2024-03-23T21:47:03;1.58;;;1.40;;
20090;SDS011;10205;49.678;6.560;2024-03-23T21:49:29;1.80;;;1.33;;
20090;SDS011;10205;49.678;6.560;2024-03-23T21:51:55;1.60;;;1.23;;
20090;SDS011;10205;49.678;6.560;2024-03-23T21:54:24;1.50;;;1.40;;
20090;SDS011;10205;49.678;6.560;2024-03-23T21:56:53;1.30;;;1.20;;
20090;SDS011;10205;49.678;6.560;2024-03-23T21:59:19;1.27;;;1.17;;
20090;SDS011;10205;49.678;6.560;2024-03-23T22:01:44;1.50;;;1.02;;
20090;SDS011;10205;49.678;6.560;2024-03-23T22:04:10;1.43;;;1.33;;
20090;SDS011;10205;49.678;6.560;2024-03-23T22:06:36;1.65;;;1.55;;
20090;SDS011;10205;49.678;6.560;2024-03-23T22:09:02;1.80;;;1.70;;
20090;SDS011;10205;49.678;6.560;2024-03-23T22:11:28;2.58;;;1.60;;
20090;SDS011;10205;49.678;6.560;2024-03-23T22:13:56;1.30;;;1.17;;
20090;SDS011;10205;49.678;6.560;2024-03-23T22:16:22;1.38;;;1.25;;
20090;SDS011;10205;49.678;6.560;2024-03-23T22:18:48;1.30;;;1.20;;
20090;SDS011;10205;49.678;6.560;2024-03-23T22:21:15;1.50;;;1.20;;
20090;SDS011;10205;49.678;6.560;2024-03-23T22:23:41;2.50;;;1.40;;
20090;SDS011;10205;49.678;6.560;2024-03-23T22:26:07;1.55;;;1.10;;
20090;SDS011;10205;49.678;6.560;2024-03-23T22:28:33;2.17;;;1.33;;
20090;SDS011;10205;49.678;6.560;2024-03-23T22:30:59;1.30;;;1.20;;
20090;SDS011;10205;49.678;6.560;2024-03-23T22:33:29;1.70;;;1.27;;
20090;SDS011;10205;49.678;6.560;2024-03-23T22:35:56;1.30;;;1.20;;
20090;SDS011;10205;49.678;6.560;2024-03-23T22:38:23;1.40;;;1.30;;
20090;SDS011;10205;49.678;6.560;2024-03-23T22:40:58;1.50;;;1.40;;
20090;SDS011;10205;49.678;6.560;2024-03-23T22:43:26;1.40;;;1.30;;
20090;SDS011;10205;49.678;6.560;2024-03-23T22:45:54;1.95;;;1.30;;
20090;SDS011;10205;49.678;6.560;2024-03-23T22:48:21;1.67;;;1.42;;
20090;SDS011;10205;49.678;6.560;2024-03-23T22:50:47;1.80;;;1.27;;
20090;SDS011;10205;49.678;6.560;2024-03-23T22:53:13;1.70;;;1.50;;
20090;SDS011;10205;49.678;6.560;2024-03-23T22:55:39;1.55;;;1.45;;
20090;SDS011;10205;49.678;6.560;2024-03-23T22:58:05;1.60;;;1.43;;
20090;SDS011;10205;49.678;6.560;2024-03-23T23:00:30;1.60;;;1.50;;
20090;SDS011;10205;49.678;6.560;2024-03-23T23:02:56;1.60;;;1.40;;
20090;SDS011;10205;49.678;6.560;2024-03-23T23:05:21;2.30;;;1.52;;
20090;SDS011;10205;49.678;6.560;2024-03-23T23:07:47;2.10;;;1.87;;
20090;SDS011;10205;49.678;6.560;2024-03-23T23:10:12;1.80;;;1.42;;
20090;SDS011;10205;49.678;6.560;2024-03-23T23:12:38;1.63;;;1.53;;
20090;SDS011;10205;49.678;6.560;2024-03-23T23:15:04;1.53;;;1.43;;
20090;SDS011;10205;49.678;6.560;2024-03-23T23:17:30;2.22;;;1.50;;
20090;SDS011;10205;49.678;6.560;2024-03-23T23:19:56;1.80;;;1.70;;
20090;SDS011;10205;49.678;6.560;2024-03-23T23:22:21;1.57;;;1.40;;
20090;SDS011;10205;49.678;6.560;2024-03-23T23:24:47;1.70;;;1.60;;
20090;SDS011;10205;49.678;6.560;2024-03-23T23:27:12;2.03;;;1.37;;
20090;SDS011;10205;49.678;6.560;2024-03-23T23:29:38;1.60;;;1.50;;
20090;SDS011;10205;49.678;6.560;2024-03-23T23:32:03;1.40;;;1.30;;
20090;SDS011;10205;49.678;6.560;2024-03-23T23:34:29;1.98;;;1.35;;
20090;SDS011;10205;49.678;6.560;2024-03-23T23:36:55;1.45;;;1.35;;
20090;SDS011;10205;49.678;6.560;2024-03-23T23:39:20;1.40;;;1.30;;
20090;SDS011;10205;49.678;6.560;2024-03-23T23:41:46;1.52;;;1.42;;
20090;SDS011;10205;49.678;6.560;2024-03-23T23:44:11;1.50;;;1.40;;
20090;SDS011;10205;49.678;6.560;2024-03-23T23:46:38;1.97;;;1.30;;
20090;SDS011;10205;49.678;6.560;2024-03-23T23:49:03;2.22;;;1.40;;
20090;SDS011;10205;49.678;6.560;2024-03-23T23:51:30;1.60;;;1.30;;
20090;SDS011;10205;49.678;6.560;2024-03-23T23:53:55;1.42;;;1.33;;
20090;SDS011;10205;49.678;6.560;2024-03-23T23:56:21;1.50;;;1.40;;
20090;SDS011;10205;49.678;6.560;2024-03-23T23:58:46;1.45;;;1.30;;
